createdAt,value
2018-02-25T00:02:19.145Z,93336.59
2018-02-25T00:04:46.732Z,93332.11
2018-02-25T00:07:14.304Z,93333.75
2018-02-25T00:09:41.910Z,93331.69
2018-02-25T00:12:09.469Z,93332.48
2018-02-25T00:14:37.019Z,93338.20
2018-02-25T00:17:04.618Z,93338.20
2018-02-25T00:19:32.187Z,93339.84
2018-02-25T00:21:59.743Z,93339.86
2018-02-25T00:24:27.335Z,93338.60
2018-02-25T00:26:54.909Z,93343.11
2018-02-25T00:29:22.464Z,93341.05
2018-02-25T00:31:50.208Z,93342.69
2018-02-25T00:34:17.749Z,93343.91
2018-02-25T00:36:45.329Z,93345.55
2018-02-25T00:39:12.933Z,93345.53
2018-02-25T00:41:40.489Z,93343.89
2018-02-25T00:44:08.040Z,93341.43
2018-02-25T00:46:35.786Z,93341.42
2018-02-25T00:49:03.353Z,93336.10
2018-02-25T00:51:30.941Z,93338.55
2018-02-25T00:53:58.657Z,93329.95
2018-02-25T00:56:26.245Z,93339.39
2018-02-25T00:58:53.795Z,93336.86
2018-02-25T01:01:21.557Z,93335.62
2018-02-25T01:03:49.123Z,93336.06
2018-02-25T01:06:16.679Z,93337.29
2018-02-25T01:08:44.274Z,93329.88
2018-02-25T01:11:11.826Z,93320.88
2018-02-25T01:13:39.377Z,93336.02
2018-02-25T01:16:07.119Z,93329.48
2018-02-25T01:18:34.682Z,93328.64
2018-02-25T01:21:02.234Z,93329.05
2018-02-25T01:23:30.129Z,93333.55
2018-02-25T01:25:57.691Z,93327.02
2018-02-25T01:28:25.297Z,93324.94
2018-02-25T01:30:53.046Z,93324.14
2018-02-25T01:33:20.635Z,93326.20
2018-02-25T01:35:48.190Z,93325.76
2018-02-25T01:38:15.998Z,93329.03
2018-02-25T01:40:43.562Z,93324.08
2018-02-25T01:43:11.128Z,93317.92
2018-02-25T01:45:39.043Z,93323.66
2018-02-25T01:48:06.615Z,93322.42
2018-02-25T01:50:45.961Z,93322.83
2018-02-25T01:53:13.519Z,93318.34
2018-02-25T01:55:41.083Z,93325.32
2018-02-25T01:58:08.820Z,93321.63
2018-02-25T02:00:36.380Z,93317.94
2018-02-25T02:03:03.945Z,93315.87
2018-02-25T02:05:31.650Z,93317.47
2018-02-25T02:07:59.219Z,93316.26
2018-02-25T02:10:26.782Z,93318.71
2018-02-25T02:12:54.367Z,93322.39
2018-02-25T02:15:21.923Z,93325.20
2018-02-25T02:17:49.554Z,93322.33
2018-02-25T02:20:17.252Z,93326.81
2018-02-25T02:22:44.810Z,93334.20
2018-02-25T02:25:12.364Z,93321.88
2018-02-25T02:27:39.922Z,93325.15
2018-02-25T02:30:07.485Z,93329.25
2018-02-25T02:32:35.233Z,93324.32
2018-02-25T02:35:02.783Z,93327.98
2018-02-25T02:37:30.355Z,93328.41
2018-02-25T02:39:58.277Z,93327.58
2018-02-25T02:42:25.806Z,93331.23
2018-02-25T02:44:53.372Z,93331.66
2018-02-25T02:47:21.102Z,93325.45
2018-02-25T02:49:49.039Z,93332.01
2018-02-25T02:52:16.606Z,93334.06
2018-02-25T02:54:44.658Z,93334.47
2018-02-25T02:57:12.210Z,93337.70
2018-02-25T02:59:39.774Z,93338.53
2018-02-25T03:02:07.483Z,93338.15
2018-02-25T03:04:35.078Z,93335.67
2018-02-25T03:07:03.289Z,93331.61
2018-02-25T03:09:30.875Z,93335.67
2018-02-25T03:11:58.426Z,93329.14
2018-02-25T03:14:25.999Z,93334.47
2018-02-25T03:16:53.751Z,93337.67
2018-02-25T03:19:21.305Z,93329.91
2018-02-25T03:21:48.874Z,93333.22
2018-02-25T03:24:16.745Z,93338.92
2018-02-25T03:26:44.308Z,93341.80
2018-02-25T03:29:11.886Z,93334.02
2018-02-25T03:31:39.479Z,93338.55
2018-02-25T03:34:07.063Z,93334.86
2018-02-25T03:36:34.622Z,93338.55
2018-02-25T03:39:02.322Z,93331.56
2018-02-25T03:41:29.906Z,93337.72
2018-02-25T03:43:57.488Z,93337.33
2018-02-25T03:46:25.260Z,93339.36
2018-02-25T03:48:52.816Z,93340.55
2018-02-25T03:51:20.388Z,93339.72
2018-02-25T03:53:48.071Z,93348.72
2018-02-25T03:56:15.630Z,93339.34
2018-02-25T03:58:43.173Z,93338.87
2018-02-25T04:01:10.873Z,93342.54
2018-02-25T04:03:38.433Z,93340.48
2018-02-25T04:06:05.989Z,93335.57
2018-02-25T04:08:33.692Z,93332.67
2018-02-25T04:11:01.250Z,93334.73
2018-02-25T04:13:28.802Z,93330.25
2018-02-25T04:15:56.408Z,93329.40
2018-02-25T04:18:23.961Z,93325.72
2018-02-25T04:20:51.523Z,93333.48
2018-02-25T04:23:19.274Z,93331.06
2018-02-25T04:25:46.834Z,93335.11
2018-02-25T04:28:14.410Z,93334.69
2018-02-25T04:30:42.014Z,93325.36
2018-02-25T04:33:09.577Z,93320.43
2018-02-25T04:35:37.128Z,93316.74
2018-02-25T04:38:04.717Z,93320.83
2018-02-25T04:40:32.274Z,93323.64
2018-02-25T04:42:59.833Z,93326.49
2018-02-25T04:45:27.575Z,93320.36
2018-02-25T04:47:55.130Z,93323.66
2018-02-25T04:50:22.709Z,93323.20
2018-02-25T04:52:50.317Z,93328.52
2018-02-25T04:55:17.886Z,93328.50
2018-02-25T04:57:45.457Z,93335.48
2018-02-25T05:00:13.201Z,93342.86
2018-02-25T05:02:40.763Z,93343.61
2018-02-25T05:05:08.343Z,93347.23
2018-02-25T05:07:36.083Z,93344.78
2018-02-25T05:10:03.658Z,93348.11
2018-02-25T05:12:31.218Z,93346.86
2018-02-25T05:14:58.842Z,93344.86
2018-02-25T05:17:26.399Z,93347.27
2018-02-25T05:19:53.963Z,93349.31
2018-02-25T05:22:21.563Z,93358.38
2018-02-25T05:24:49.140Z,93351.02
2018-02-25T05:27:16.704Z,93352.19
2018-02-25T05:29:44.458Z,93357.11
2018-02-25T05:32:12.046Z,93355.48
2018-02-25T05:34:39.605Z,93361.23
2018-02-25T05:37:07.189Z,93362.05
2018-02-25T05:39:34.756Z,93362.10
2018-02-25T05:42:02.323Z,93363.77
2018-02-25T05:44:30.347Z,93360.50
2018-02-25T05:46:57.905Z,93364.16
2018-02-25T05:49:25.482Z,93367.06
2018-02-25T05:51:53.226Z,93373.60
2018-02-25T05:54:20.778Z,93366.69
2018-02-25T05:56:48.342Z,93373.70
2018-02-25T05:59:16.084Z,93374.16
2018-02-25T06:01:43.646Z,93376.98
2018-02-25T06:04:11.204Z,93379.48
2018-02-25T06:06:38.890Z,93374.62
2018-02-25T06:09:06.443Z,93368.96
2018-02-25T06:11:35.164Z,93369.36
2018-02-25T06:14:02.845Z,93378.42
2018-02-25T06:16:30.406Z,93381.26
2018-02-25T06:18:57.975Z,93386.14
2018-02-25T06:21:25.636Z,93388.23
2018-02-25T06:23:53.186Z,93384.96
2018-02-25T06:26:20.757Z,93393.17
2018-02-25T06:28:48.317Z,93394.44
2018-02-25T06:31:15.877Z,93391.97
2018-02-25T06:33:43.457Z,93392.36
2018-02-25T06:36:11.020Z,93395.71
2018-02-25T06:38:38.591Z,93398.58
2018-02-25T06:41:06.335Z,93409.24
2018-02-25T06:43:33.924Z,93408.05
2018-02-25T06:46:01.486Z,93412.48
2018-02-25T06:48:29.070Z,93410.42
2018-02-25T06:50:56.627Z,93410.45
2018-02-25T06:53:24.181Z,93418.23
2018-02-25T06:55:51.880Z,93424.83
2018-02-25T06:58:19.448Z,93426.47
2018-02-25T07:00:47.006Z,93421.17
2018-02-25T07:03:14.745Z,93413.83
2018-02-25T07:05:42.307Z,93421.66
2018-02-25T07:08:09.871Z,93421.68
2018-02-25T07:10:37.453Z,93422.56
2018-02-25T07:13:05.024Z,93418.05
2018-02-25T07:15:32.598Z,93416.06
2018-02-25T07:18:00.359Z,93411.99
2018-02-25T07:20:27.943Z,93416.87
2018-02-25T07:22:55.493Z,93413.59
2018-02-25T07:25:23.123Z,93410.34
2018-02-25T07:27:50.685Z,93414.50
2018-02-25T07:30:18.267Z,93413.31
2018-02-25T07:32:45.928Z,93405.53
2018-02-25T07:35:13.485Z,93408.87
2018-02-25T07:37:41.043Z,93412.97
2018-02-25T07:40:08.625Z,93415.86
2018-02-25T07:42:36.177Z,93412.58
2018-02-25T07:45:03.756Z,93413.39
2018-02-25T07:47:31.351Z,93410.13
2018-02-25T07:49:58.914Z,93403.19
2018-02-25T07:52:26.478Z,93400.73
2018-02-25T07:54:54.143Z,93392.52
2018-02-25T07:57:21.710Z,93393.36
2018-02-25T07:59:49.301Z,93398.27
2018-02-25T08:02:16.917Z,93405.27
2018-02-25T08:04:44.514Z,93406.08
2018-02-25T08:07:12.074Z,93404.85
2018-02-25T08:09:39.658Z,93414.31
2018-02-25T08:12:07.218Z,93416.34
2018-02-25T08:14:34.785Z,93416.33
2018-02-25T08:17:02.380Z,93412.65
2018-02-25T08:19:29.946Z,93416.30
2018-02-25T08:21:57.495Z,93421.67
2018-02-25T08:24:25.243Z,93424.95
2018-02-25T08:26:52.816Z,93420.84
2018-02-25T08:29:20.391Z,93418.36
2018-02-25T08:31:48.002Z,93415.02
2018-02-25T08:34:15.564Z,93419.91
2018-02-25T08:36:43.133Z,93416.89
2018-02-25T08:39:11.035Z,93423.37
2018-02-25T08:41:38.590Z,93420.00
2018-02-25T08:44:06.150Z,93429.03
2018-02-25T08:46:33.704Z,93423.27
2018-02-25T08:49:01.259Z,93423.94
2018-02-25T08:51:28.994Z,93423.42
2018-02-25T08:53:56.558Z,93421.19
2018-02-25T08:56:24.124Z,93416.92
2018-02-25T08:58:51.996Z,93418.02
2018-02-25T09:01:19.555Z,93418.92
2018-02-25T09:03:47.106Z,93414.39
2018-02-25T09:06:14.715Z,93411.99
2018-02-25T09:08:42.263Z,93414.45
2018-02-25T09:11:09.822Z,93409.45
2018-02-25T09:13:37.415Z,93410.55
2018-02-25T09:16:04.969Z,93408.42
2018-02-25T09:18:32.843Z,93402.65
2018-02-25T09:21:00.418Z,93403.00
2018-02-25T09:23:27.971Z,93399.40
2018-02-25T09:25:55.519Z,93402.89
2018-02-25T09:28:24.175Z,93401.05
2018-02-25T09:30:51.739Z,93399.97
2018-02-25T09:33:19.300Z,93397.25
2018-02-25T09:35:47.053Z,93400.55
2018-02-25T09:38:14.608Z,93392.17
2018-02-25T09:40:42.165Z,93400.63
2018-02-25T09:43:09.845Z,93391.83
2018-02-25T09:45:37.396Z,93388.48
2018-02-25T09:48:04.950Z,93390.31
2018-02-25T09:50:32.630Z,93387.11
2018-02-25T09:53:00.190Z,93382.44
2018-02-25T09:55:27.752Z,93381.17
2018-02-25T09:57:55.815Z,93382.33
2018-02-25T10:00:23.374Z,93377.48
2018-02-25T10:02:50.946Z,93375.57
2018-02-25T10:05:18.539Z,93371.88
2018-02-25T10:07:46.102Z,93368.90
2018-02-25T10:10:13.655Z,93369.61
2018-02-25T10:12:41.479Z,93363.25
2018-02-25T10:15:09.030Z,93361.36
2018-02-25T10:17:36.578Z,93358.03
2018-02-25T10:20:04.339Z,93356.71
2018-02-25T10:22:31.900Z,93355.25
2018-02-25T10:24:59.486Z,93352.03
2018-02-25T10:27:27.222Z,93349.25
2018-02-25T10:29:54.779Z,93347.84
2018-02-25T10:32:22.336Z,93345.57
2018-02-25T10:34:50.084Z,93339.20
2018-02-25T10:37:17.646Z,93337.28
2018-02-25T10:39:45.198Z,93330.84
2018-02-25T10:42:12.811Z,93329.70
2018-02-25T10:44:40.364Z,93334.86
2018-02-25T10:47:07.924Z,93332.00
2018-02-25T10:49:35.503Z,93327.55
2018-02-25T10:52:03.075Z,93321.90
2018-02-25T10:54:30.624Z,93317.77
2018-02-25T10:56:58.198Z,93313.32
2018-02-25T10:59:25.756Z,93317.23
2018-02-25T11:01:53.313Z,93310.46
2018-02-25T11:04:20.930Z,93313.86
2018-02-25T11:06:48.486Z,93314.41
2018-02-25T11:09:16.082Z,93305.01
2018-02-25T11:11:43.768Z,93299.44
2018-02-25T11:14:11.334Z,93297.62
2018-02-25T11:16:38.885Z,93293.53
2018-02-25T11:19:06.665Z,93291.43
2018-02-25T11:21:34.215Z,93288.15
2018-02-25T11:24:01.780Z,93288.57
2018-02-25T11:26:29.363Z,93292.81
2018-02-25T11:28:56.929Z,93287.47
2018-02-25T11:31:24.544Z,93284.40
2018-02-25T11:33:52.448Z,93282.07
2018-02-25T11:36:20.023Z,93281.44
2018-02-25T11:38:47.580Z,93290.95
2018-02-25T11:41:15.322Z,93282.52
2018-02-25T11:43:42.878Z,93277.42
2018-02-25T11:46:10.448Z,93283.52
2018-02-25T11:48:38.016Z,93284.09
2018-02-25T11:51:05.642Z,93274.72
2018-02-25T11:53:33.372Z,93275.05
2018-02-25T11:56:00.946Z,93265.67
2018-02-25T11:58:28.512Z,93268.52
2018-02-25T12:00:56.117Z,93266.64
2018-02-25T12:03:23.674Z,93266.14
2018-02-25T12:05:51.260Z,93260.83
2018-02-25T12:08:18.868Z,93259.62
2018-02-25T12:10:46.428Z,93255.05
2018-02-25T12:13:14.017Z,93246.31
2018-02-25T12:15:41.770Z,93245.42
2018-02-25T12:18:09.338Z,93253.80
2018-02-25T12:20:36.957Z,93247.45
2018-02-25T12:23:04.552Z,93251.75
2018-02-25T12:25:32.103Z,93244.89
2018-02-25T12:27:59.686Z,93250.88
2018-02-25T12:30:27.296Z,93250.89
2018-02-25T12:32:54.861Z,93247.58
2018-02-25T12:35:22.429Z,93236.00
2018-02-25T12:37:50.383Z,93238.47
2018-02-25T12:40:17.971Z,93243.35
2018-02-25T12:42:45.531Z,93243.05
2018-02-25T12:45:13.294Z,93245.93
2018-02-25T12:47:40.894Z,93245.06
2018-02-25T12:50:08.491Z,93235.71
2018-02-25T12:52:36.121Z,93229.66
2018-02-25T12:55:03.751Z,93226.84
2018-02-25T12:57:31.344Z,93232.23
2018-02-25T12:59:59.185Z,93236.83
2018-02-25T13:02:26.745Z,93241.83
2018-02-25T13:04:54.353Z,93239.00
2018-02-25T13:07:21.968Z,93236.93
2018-02-25T13:09:49.606Z,93239.85
2018-02-25T13:17:41.465Z,93237.36
2018-02-25T13:20:09.374Z,93236.56
2018-02-25T13:22:36.978Z,93250.91
2018-02-25T13:25:04.592Z,93251.31
2018-02-25T13:27:32.339Z,93252.12
2018-02-25T13:29:59.962Z,93249.64
2018-02-25T13:32:27.604Z,93249.67
2018-02-25T13:34:55.268Z,93248.44
2018-02-25T13:37:22.932Z,93261.11
2018-02-25T13:39:50.859Z,93260.69
2018-02-25T13:42:18.640Z,93250.03
2018-02-25T13:44:46.238Z,93254.56
2018-02-25T13:47:13.995Z,93250.48
2018-02-25T13:49:41.786Z,93252.52
2018-02-25T13:52:09.424Z,93242.67
2018-02-25T13:54:37.051Z,93250.87
2018-02-25T13:57:04.870Z,93249.23
2018-02-25T13:59:32.445Z,93249.61
2018-02-25T14:02:00.087Z,93247.19
2018-02-25T14:04:27.811Z,93237.73
2018-02-25T14:06:55.452Z,93243.84
2018-02-25T14:09:23.031Z,93251.23
2018-02-25T14:11:51.070Z,93252.03
2018-02-25T14:14:18.644Z,93247.94
2018-02-25T14:16:46.328Z,93252.45
2018-02-25T14:19:14.140Z,93252.05
2018-02-25T14:21:41.838Z,93254.09
2018-02-25T14:24:09.486Z,93257.79
2018-02-25T14:26:37.111Z,93262.24
2018-02-25T14:29:04.688Z,93260.21
2018-02-25T14:31:32.313Z,93258.15
2018-02-25T14:33:59.914Z,93258.47
2018-02-25T14:36:27.511Z,93262.20
2018-02-25T14:38:55.084Z,93260.12
2018-02-25T14:41:22.996Z,93258.91
2018-02-25T14:43:50.565Z,93256.42
2018-02-25T14:46:18.163Z,93255.63
2018-02-25T14:48:45.756Z,93252.34
2018-02-25T14:51:13.320Z,93254.39
2018-02-25T14:53:40.921Z,93254.38
2018-02-25T14:56:08.475Z,93260.12
2018-02-25T14:58:36.055Z,93256.06
2018-02-25T15:01:03.950Z,93258.11
2018-02-25T15:03:31.488Z,93256.86
2018-02-25T15:05:59.046Z,93265.47
2018-02-25T15:08:26.702Z,93258.55
2018-02-25T15:10:54.284Z,93250.77
2018-02-25T15:13:21.854Z,93255.30
2018-02-25T15:15:49.601Z,93261.86
2018-02-25T15:18:17.156Z,93265.48
2018-02-25T15:20:44.710Z,93264.28
2018-02-25T15:23:12.311Z,93268.36
2018-02-25T15:25:39.862Z,93273.64
2018-02-25T15:28:07.438Z,93270.39
2018-02-25T15:30:35.240Z,93267.12
2018-02-25T15:33:02.841Z,93271.21
2018-02-25T15:35:30.401Z,93275.30
2018-02-25T15:37:58.312Z,93269.98
2018-02-25T15:40:25.880Z,93269.52
2018-02-25T15:42:53.471Z,93264.59
2018-02-25T15:45:22.155Z,93264.59
2018-02-25T15:47:49.710Z,93264.19
2018-02-25T15:50:17.301Z,93261.74
2018-02-25T15:52:45.240Z,93271.12
2018-02-25T15:55:13.734Z,93261.25
2018-02-25T15:57:41.332Z,93257.93
2018-02-25T16:00:09.242Z,93266.19
2018-02-25T16:02:36.830Z,93269.86
2018-02-25T16:05:04.397Z,93264.15
2018-02-25T16:07:31.998Z,93264.54
2018-02-25T16:09:59.561Z,93263.72
2018-02-25T16:12:27.147Z,93263.71
2018-02-25T16:14:54.757Z,93256.77
2018-02-25T16:17:22.337Z,93265.34
2018-02-25T16:19:49.921Z,93266.55
2018-02-25T16:22:17.685Z,93266.17
2018-02-25T16:24:45.263Z,93272.34
2018-02-25T16:27:12.840Z,93279.73
2018-02-25T16:29:40.590Z,93276.42
2018-02-25T16:32:08.158Z,93280.94
2018-02-25T16:34:35.820Z,93288.69
2018-02-25T16:37:03.608Z,93298.45
2018-02-25T16:39:31.201Z,93295.95
2018-02-25T16:41:58.807Z,93294.72
2018-02-25T16:44:26.484Z,93297.98
2018-02-25T16:46:54.118Z,93300.80
2018-02-25T16:49:21.710Z,93302.45
2018-02-25T16:51:49.458Z,93315.98
2018-02-25T16:54:17.024Z,93311.02
2018-02-25T16:56:44.610Z,93316.33
2018-02-25T16:59:12.535Z,93308.19
2018-02-25T17:01:40.134Z,93308.61
2018-02-25T17:04:07.739Z,93310.21
2018-02-25T17:06:35.488Z,93313.89
2018-02-25T17:09:03.080Z,93318.38
2018-02-25T17:11:30.773Z,93311.82
2018-02-25T17:13:58.376Z,93313.00
2018-02-25T17:16:25.962Z,93315.43
2018-02-25T17:18:53.530Z,93317.45
2018-02-25T17:21:21.271Z,93315.83
2018-02-25T17:23:48.940Z,93317.83
2018-02-25T17:26:16.517Z,93313.73
2018-02-25T17:28:44.131Z,93315.75
2018-02-25T17:31:11.695Z,93312.46
2018-02-25T17:33:39.274Z,93308.35
2018-02-25T17:36:06.856Z,93305.48
2018-02-25T17:38:34.445Z,93301.41
2018-02-25T17:41:02.029Z,93303.47
2018-02-25T17:43:29.889Z,93298.58
2018-02-25T17:45:57.526Z,93298.97
2018-02-25T17:48:25.140Z,93300.17
2018-02-25T17:50:52.770Z,93300.59
2018-02-25T17:53:20.352Z,93298.12
2018-02-25T17:55:47.977Z,93295.25
2018-02-25T17:58:15.718Z,93304.25
2018-02-25T18:00:43.337Z,93304.23
2018-02-25T18:03:10.900Z,93289.89
2018-02-25T18:05:38.502Z,93292.72
2018-02-25T18:08:06.097Z,93297.23
2018-02-25T18:10:33.685Z,93291.52
2018-02-25T18:13:01.451Z,93291.12
2018-02-25T18:15:29.032Z,93292.77
2018-02-25T18:17:56.624Z,93292.74
2018-02-25T18:20:24.353Z,93288.27
2018-02-25T18:22:52.047Z,93286.24
2018-02-25T18:25:19.711Z,93280.45
2018-02-25T18:27:47.466Z,93282.44
2018-02-25T18:30:15.064Z,93281.17
2018-02-25T18:32:42.618Z,93289.73
2018-02-25T18:35:10.255Z,93280.67
2018-02-25T18:37:37.823Z,93286.81
2018-02-25T18:40:05.382Z,93292.92
2018-02-25T18:42:32.990Z,93281.04
2018-02-25T18:45:00.601Z,93272.02
2018-02-25T18:47:28.213Z,93273.67
2018-02-25T18:49:56.004Z,93276.88
2018-02-25T18:52:23.589Z,93261.74
2018-02-25T18:54:51.143Z,93267.88
2018-02-25T18:57:18.756Z,93268.69
2018-02-25T18:59:46.372Z,93267.45
2018-02-25T19:02:14.037Z,93262.15
2018-02-25T19:04:41.630Z,93266.63
2018-02-25T19:07:09.223Z,93271.95
2018-02-25T19:09:36.936Z,93260.11
2018-02-25T19:12:04.533Z,93260.50
2018-02-25T19:14:32.114Z,93260.06
2018-02-25T19:16:59.784Z,93260.50
2018-02-25T19:19:27.396Z,93254.77
2018-02-25T19:21:55.354Z,93253.05
2018-02-25T19:24:23.224Z,93250.10
2018-02-25T19:26:50.852Z,93252.89
2018-02-25T19:29:18.402Z,93258.65
2018-02-25T19:31:46.331Z,93248.38
2018-02-25T19:34:13.942Z,93249.61
2018-02-25T19:36:47.182Z,93245.07
2018-02-25T19:39:20.135Z,93249.55
2018-02-25T19:41:54.417Z,93254.84
2018-02-25T19:44:22.002Z,93243.34
2018-02-25T19:46:49.554Z,93236.86
2018-02-25T19:49:17.143Z,93237.26
2018-02-25T19:51:44.767Z,93248.27
2018-02-25T19:54:12.632Z,93242.02
2018-02-25T19:56:40.196Z,93236.74
2018-02-25T19:59:07.814Z,93242.45
2018-02-25T20:01:35.450Z,93246.88
2018-02-25T20:04:03.028Z,93239.19
2018-02-25T20:06:30.614Z,93244.53
2018-02-25T20:08:58.230Z,93250.63
2018-02-25T20:11:25.817Z,93246.19
2018-02-25T20:13:53.408Z,93244.47
2018-02-25T20:16:21.310Z,93246.11
2018-02-25T20:18:48.894Z,93240.75
2018-02-25T20:21:16.506Z,93241.17
2018-02-25T20:23:44.174Z,93246.91
2018-02-25T20:26:11.749Z,93233.42
2018-02-25T20:28:39.331Z,93237.91
2018-02-25T20:31:07.096Z,93239.53
2018-02-25T20:33:34.658Z,93236.30
2018-02-25T20:36:02.274Z,93234.61
2018-02-25T20:38:29.922Z,93230.56
2018-02-25T20:40:57.540Z,93232.54
2018-02-25T20:43:25.138Z,93233.75
2018-02-25T20:45:52.740Z,93229.69
2018-02-25T20:48:20.414Z,93232.55
2018-02-25T20:50:48.076Z,93222.75
2018-02-25T20:53:15.876Z,93216.25
2018-02-25T20:55:43.437Z,93217.47
2018-02-25T20:58:11.008Z,93222.75
2018-02-25T21:00:38.794Z,93215.38
2018-02-25T21:03:06.346Z,93207.63
2018-02-25T21:05:33.895Z,93205.18
2018-02-25T21:08:01.641Z,93203.52
2018-02-25T21:10:29.187Z,93204.67
2018-02-25T21:12:56.742Z,93207.55
2018-02-25T21:15:24.522Z,93205.50
2018-02-25T21:17:52.097Z,93202.22
2018-02-25T21:20:19.668Z,93200.97
2018-02-25T21:22:47.377Z,93214.84
2018-02-25T21:25:14.990Z,93203.37
2018-02-25T21:27:42.559Z,93207.85
2018-02-25T21:30:10.264Z,93205.00
2018-02-25T21:32:37.924Z,93207.38
2018-02-25T21:35:05.484Z,93205.77
2018-02-25T21:37:33.229Z,93202.09
2018-02-25T21:40:00.800Z,93198.89
2018-02-25T21:42:28.392Z,93195.25
2018-02-25T21:44:55.985Z,93193.93
2018-02-25T21:47:23.587Z,93200.87
2018-02-25T21:49:51.271Z,93199.62
2018-02-25T21:52:19.706Z,93193.88
2018-02-25T21:54:58.674Z,93193.47
2018-02-25T21:57:31.998Z,93181.63
2018-02-25T22:00:04.946Z,93191.38
2018-02-25T22:02:38.158Z,93183.66
2018-02-25T22:05:05.745Z,93187.34
2018-02-25T22:07:33.328Z,93179.56
2018-02-25T22:10:01.208Z,93182.39
2018-02-25T22:12:28.764Z,93176.32
2018-02-25T22:14:56.352Z,93178.36
2018-02-25T22:17:23.959Z,93179.94
2018-02-25T22:19:51.525Z,93181.57
2018-02-25T22:22:19.092Z,93167.30
2018-02-25T22:24:46.836Z,93175.41
2018-02-25T22:27:14.395Z,93179.11
2018-02-25T22:29:41.952Z,93164.44
2018-02-25T22:32:09.599Z,93164.37
2018-02-25T22:34:37.158Z,93168.42
2018-02-25T22:37:04.748Z,93168.06
2018-02-25T22:39:32.487Z,93165.59
2018-02-25T22:42:00.037Z,93174.56
2018-02-25T22:44:27.596Z,93168.76
2018-02-25T22:46:55.180Z,93177.27
2018-02-25T22:49:22.730Z,93168.34
2018-02-25T22:51:50.286Z,93159.34
2018-02-25T22:54:18.046Z,93166.64
2018-02-25T22:56:45.597Z,93160.48
2018-02-25T22:59:13.155Z,93158.34
2018-02-25T23:01:40.742Z,93154.66
2018-02-25T23:04:08.294Z,93154.73
2018-02-25T23:06:35.853Z,93154.25
2018-02-25T23:09:03.487Z,93154.18
2018-02-25T23:11:31.037Z,93150.13
2018-02-25T23:13:58.586Z,93151.33
2018-02-25T23:16:26.309Z,93155.77
2018-02-25T23:18:53.865Z,93147.98
2018-02-25T23:21:21.420Z,93152.53
2018-02-25T23:23:49.116Z,93161.42
2018-02-25T23:26:16.674Z,93152.83
2018-02-25T23:28:44.226Z,93150.37
2018-02-25T23:31:11.826Z,93143.90
2018-02-25T23:33:39.398Z,93136.53
2018-02-25T23:36:06.954Z,93131.20
2018-02-25T23:38:34.539Z,93134.84
2018-02-25T23:41:02.089Z,93127.51
2018-02-25T23:43:29.643Z,93127.14
2018-02-25T23:45:57.385Z,93128.70
2018-02-25T23:48:24.933Z,93127.87
2018-02-25T23:50:52.490Z,93127.01
2018-02-25T23:53:20.078Z,93128.98
2018-02-25T23:55:47.644Z,93125.73
2018-02-25T23:58:15.209Z,93119.23
